Terminal Aerodrome Forecast
Issued by NWS

Home | Current Version | Previous Version | Text Only | Print | Product List | Glossary Off
Versions: 1 2 3 4 5 6 7 8 9 10 11 12 13 14 15 16 17

000
FTUS43 KMPX 140520
TAFRWF
TAF
KRWF 140520Z 1406/1506 09004KT P6SM FEW120
     FM141500 09006KT P6SM OVC050
     FM141700 08007KT P6SM -SHRA OVC025
     FM142000 05009KT 4SM -SHRA BR OVC015
     FM142300 36011G17KT P6SM -SHRA OVC025
     FM150300 33012G19KT P6SM BKN030 OVC050=

USA.gov is the U.S. government's official web portal to all federal, state and local government web resources and services.